createdAt,value
2019-03-09T00:00:45.745Z,6.90
2019-03-09T00:03:15.702Z,6.90
2019-03-09T00:05:45.545Z,7.00
2019-03-09T00:08:15.705Z,7.00
2019-03-09T00:10:45.523Z,7.00
2019-03-09T00:13:15.701Z,7.00
2019-03-09T00:15:45.516Z,7.10
2019-03-09T00:18:16.338Z,7.10
2019-03-09T00:20:46.119Z,7.10
2019-03-09T00:23:38.514Z,7.10
2019-03-09T00:26:22.622Z,7.10
2019-03-09T00:29:01.790Z,7.10
2019-03-09T00:31:45.547Z,7.10
2019-03-09T00:34:15.728Z,7.10
2019-03-09T00:36:46.014Z,7.00
2019-03-09T00:39:16.317Z,7.00
2019-03-09T00:41:46.134Z,7.00
2019-03-09T00:44:15.930Z,6.90
2019-03-09T00:46:46.103Z,6.80
2019-03-09T00:49:16.427Z,6.80
2019-03-09T00:51:46.621Z,6.80
2019-03-09T00:54:16.451Z,6.80
2019-03-09T00:56:46.401Z,6.80
2019-03-09T00:59:16.255Z,6.80
2019-03-09T01:01:46.291Z,6.70
2019-03-09T01:04:18.891Z,6.70
2019-03-09T01:06:49.405Z,6.60
2019-03-09T01:09:19.626Z,6.70
2019-03-09T01:11:49.485Z,6.60
2019-03-09T01:14:19.726Z,6.60
2019-03-09T01:16:50.169Z,6.60
2019-03-09T01:19:20.420Z,6.60
2019-03-09T01:21:50.356Z,6.60
2019-03-09T01:24:20.570Z,6.50
2019-03-09T01:26:50.475Z,6.50
2019-03-09T01:29:20.648Z,6.40
2019-03-09T01:31:50.587Z,6.40
2019-03-09T01:34:20.629Z,6.40
2019-03-09T01:36:51.010Z,6.30
2019-03-09T01:39:20.868Z,6.30
2019-03-09T01:41:51.171Z,6.20
2019-03-09T01:44:20.977Z,6.20
2019-03-09T01:46:50.779Z,6.10
2019-03-09T01:49:20.796Z,6.10
2019-03-09T01:51:51.187Z,6.10
2019-03-09T01:54:21.582Z,6.10
2019-03-09T01:56:51.597Z,6.10
2019-03-09T01:59:21.425Z,6.10
2019-03-09T02:01:51.309Z,6.10
2019-03-09T02:04:21.510Z,6.10
2019-03-09T02:06:51.408Z,6.10
2019-03-09T02:09:21.255Z,6.10
2019-03-09T02:11:51.118Z,6.10
2019-03-09T02:14:21.524Z,6.10
2019-03-09T02:16:51.750Z,6.00
2019-03-09T02:19:21.489Z,6.10
2019-03-09T02:21:51.504Z,6.10
2019-03-09T02:24:21.724Z,6.10
2019-03-09T02:26:51.826Z,6.10
2019-03-09T02:29:21.713Z,6.20
2019-03-09T02:31:51.755Z,6.20
2019-03-09T02:34:21.742Z,6.20
2019-03-09T02:36:51.573Z,6.30
2019-03-09T02:39:29.727Z,6.30
2019-03-09T02:41:59.686Z,6.30
2019-03-09T02:44:29.545Z,6.30
2019-03-09T02:46:59.822Z,6.40
2019-03-09T02:49:29.656Z,6.40
2019-03-09T02:51:59.999Z,6.40
2019-03-09T02:54:29.764Z,6.40
2019-03-09T02:56:59.951Z,6.50
2019-03-09T02:59:30.008Z,6.50
2019-03-09T03:02:19.008Z,6.60
2019-03-09T03:04:49.877Z,6.70
2019-03-09T03:07:19.995Z,6.70
2019-03-09T03:09:50.403Z,6.80
2019-03-09T03:12:20.531Z,6.90
2019-03-09T03:14:50.504Z,7.00
2019-03-09T03:17:20.332Z,7.10
2019-03-09T03:19:50.224Z,7.10
2019-03-09T03:22:20.515Z,7.00
2019-03-09T03:24:51.326Z,7.00
2019-03-09T03:27:21.470Z,7.10
2019-03-09T03:29:51.501Z,7.10
2019-03-09T03:32:21.341Z,7.10
2019-03-09T03:34:51.495Z,7.10
2019-03-09T03:37:21.723Z,7.10
2019-03-09T03:39:52.134Z,7.10
2019-03-09T03:42:22.265Z,7.20
2019-03-09T03:44:52.180Z,7.20
2019-03-09T03:47:22.358Z,7.10
2019-03-09T03:49:52.566Z,7.20
2019-03-09T03:52:22.516Z,7.10
2019-03-09T03:54:52.419Z,7.00
2019-03-09T03:57:22.610Z,6.90
2019-03-09T03:59:52.845Z,6.90
2019-03-09T04:02:22.930Z,6.80
2019-03-09T04:04:53.217Z,7.00
2019-03-09T04:07:23.356Z,7.00
2019-03-09T04:09:53.975Z,7.00
2019-03-09T04:12:23.816Z,7.00
2019-03-09T04:14:54.163Z,7.00
2019-03-09T04:17:23.984Z,7.10
2019-03-09T04:19:53.822Z,7.10
2019-03-09T04:22:23.688Z,7.10
2019-03-09T04:24:53.804Z,7.10
2019-03-09T04:27:23.669Z,7.10
2019-03-09T04:29:53.708Z,7.20
2019-03-09T04:32:23.978Z,7.20
2019-03-09T04:34:54.857Z,7.10
2019-03-09T04:37:24.701Z,7.10
2019-03-09T04:39:54.774Z,7.20
2019-03-09T04:42:25.514Z,7.20
2019-03-09T04:44:55.322Z,7.30
2019-03-09T04:47:25.610Z,7.20
2019-03-09T04:49:55.378Z,7.20
2019-03-09T04:52:25.202Z,7.20
2019-03-09T04:54:55.469Z,7.20
2019-03-09T04:57:25.278Z,7.10
2019-03-09T04:59:55.425Z,7.00
2019-03-09T05:02:25.291Z,7.00
2019-03-09T05:04:55.091Z,7.10
2019-03-09T05:07:46.112Z,7.10
2019-03-09T05:10:31.728Z,7.10
2019-03-09T05:13:08.036Z,7.10
2019-03-09T05:15:38.224Z,7.20
2019-03-09T05:18:07.962Z,7.20
2019-03-09T05:20:37.834Z,7.20
2019-03-09T05:23:08.427Z,7.20
2019-03-09T05:25:38.326Z,7.20
2019-03-09T05:28:08.173Z,7.20
2019-03-09T05:30:39.425Z,7.20
2019-03-09T05:33:09.460Z,7.10
2019-03-09T05:35:40.346Z,7.10
2019-03-09T05:38:10.419Z,7.10
2019-03-09T05:40:40.489Z,7.10
2019-03-09T05:43:10.750Z,7.10
2019-03-09T05:45:42.539Z,7.20
2019-03-09T05:48:12.424Z,7.20
2019-03-09T05:50:42.205Z,7.20
2019-03-09T05:53:20.395Z,7.30
2019-03-09T05:55:50.205Z,7.30
2019-03-09T05:58:19.974Z,7.30
2019-03-09T06:00:49.778Z,7.30
2019-03-09T06:03:19.570Z,7.40
2019-03-09T06:06:10.430Z,7.30
2019-03-09T06:08:40.347Z,7.30
2019-03-09T06:11:10.421Z,7.40
2019-03-09T06:13:41.056Z,7.40
2019-03-09T06:16:11.022Z,7.40
2019-03-09T06:18:40.851Z,7.40
2019-03-09T06:21:10.742Z,7.50
2019-03-09T06:23:40.557Z,7.40
2019-03-09T06:26:10.516Z,7.40
2019-03-09T06:28:40.364Z,7.40
2019-03-09T06:31:10.338Z,7.40
2019-03-09T06:33:40.831Z,7.50
2019-03-09T06:36:43.201Z,7.60
2019-03-09T06:39:34.582Z,7.60
2019-03-09T06:42:10.234Z,7.80
2019-03-09T06:44:40.038Z,7.80
2019-03-09T06:47:09.880Z,7.80
2019-03-09T06:49:40.573Z,7.90
2019-03-09T06:52:10.422Z,7.90
2019-03-09T06:54:40.232Z,7.90
2019-03-09T06:57:13.896Z,8.00
2019-03-09T06:59:41.647Z,8.10
2019-03-09T07:02:11.678Z,8.20
2019-03-09T07:04:41.483Z,8.20
2019-03-09T07:07:11.501Z,8.20
2019-03-09T07:09:41.385Z,8.30
2019-03-09T07:12:11.134Z,8.30
2019-03-09T07:15:22.030Z,8.30
2019-03-09T07:18:03.358Z,8.40
2019-03-09T07:20:34.038Z,8.40
2019-03-09T07:23:06.643Z,8.30
2019-03-09T07:25:36.798Z,8.20
2019-03-09T07:28:14.169Z,8.00
2019-03-09T07:30:44.559Z,7.70
2019-03-09T07:33:14.511Z,7.40
2019-03-09T07:35:45.090Z,7.20
2019-03-09T07:38:14.949Z,7.10
2019-03-09T07:40:44.771Z,7.00
2019-03-09T07:43:14.793Z,7.00
2019-03-09T07:45:45.058Z,7.00
2019-03-09T07:48:15.798Z,7.00
2019-03-09T07:50:45.546Z,7.00
2019-03-09T07:53:15.433Z,7.00
2019-03-09T07:55:45.389Z,7.00
2019-03-09T07:58:15.199Z,7.00
2019-03-09T08:00:45.370Z,7.00
2019-03-09T08:03:15.258Z,7.10
2019-03-09T08:05:45.087Z,7.20
2019-03-09T08:08:14.906Z,7.30
2019-03-09T08:10:44.733Z,7.40
2019-03-09T08:13:14.654Z,7.40
2019-03-09T08:15:44.527Z,7.50
2019-03-09T08:18:14.321Z,7.60
2019-03-09T08:20:45.212Z,7.70
2019-03-09T08:23:15.166Z,7.70
2019-03-09T08:25:44.924Z,7.80
2019-03-09T08:28:16.355Z,7.90
2019-03-09T08:30:46.757Z,8.00
2019-03-09T08:33:17.012Z,8.00
2019-03-09T08:35:46.795Z,8.00
2019-03-09T08:38:16.645Z,8.10
2019-03-09T08:40:47.360Z,8.10
2019-03-09T08:43:18.861Z,8.20
2019-03-09T08:45:49.154Z,8.30
2019-03-09T08:48:20.859Z,8.40
2019-03-09T08:50:50.896Z,8.50
2019-03-09T08:53:20.768Z,8.60
2019-03-09T08:55:50.773Z,8.60
2019-03-09T08:58:20.763Z,8.70
2019-03-09T09:00:51.407Z,8.70
2019-03-09T09:03:21.716Z,8.80
2019-03-09T09:05:51.596Z,8.80
2019-03-09T09:08:21.572Z,8.90
2019-03-09T09:10:52.001Z,8.90
2019-03-09T09:13:23.255Z,9.00
2019-03-09T09:15:53.134Z,9.20
2019-03-09T09:18:23.097Z,9.20
2019-03-09T09:20:53.478Z,9.20
2019-03-09T09:23:23.975Z,9.20
2019-03-09T09:25:53.817Z,9.20
2019-03-09T09:28:24.243Z,9.20
2019-03-09T09:30:54.368Z,9.10
2019-03-09T09:33:25.547Z,9.10
2019-03-09T09:35:55.558Z,9.20
2019-03-09T09:38:28.787Z,9.30
2019-03-09T09:40:58.707Z,9.40
2019-03-09T09:43:28.550Z,9.40
2019-03-09T09:45:58.429Z,9.50
2019-03-09T09:48:28.623Z,9.50
2019-03-09T09:50:59.232Z,9.50
2019-03-09T09:53:29.425Z,9.40
2019-03-09T09:55:59.657Z,9.40
2019-03-09T09:58:30.362Z,9.50
2019-03-09T10:01:00.390Z,9.50
2019-03-09T10:03:31.303Z,9.50
2019-03-09T10:06:01.202Z,9.60
2019-03-09T10:08:31.485Z,9.60
2019-03-09T10:11:01.370Z,9.70
2019-03-09T10:13:31.316Z,9.80
2019-03-09T10:16:01.210Z,10.00
2019-03-09T10:18:30.958Z,10.00
2019-03-09T10:21:01.590Z,10.10
2019-03-09T10:23:31.441Z,10.30
2019-03-09T10:26:01.627Z,10.30
2019-03-09T10:28:31.786Z,10.40
2019-03-09T10:31:03.182Z,10.40
2019-03-09T10:33:33.096Z,10.40
2019-03-09T10:36:02.922Z,10.30
2019-03-09T10:38:33.234Z,10.20
2019-03-09T10:41:03.596Z,10.10
2019-03-09T10:43:33.374Z,10.00
2019-03-09T10:46:04.093Z,10.00
2019-03-09T10:48:34.741Z,10.00
2019-03-09T10:51:04.986Z,10.00
2019-03-09T10:53:34.885Z,9.90
2019-03-09T10:56:05.353Z,9.90
2019-03-09T10:58:36.270Z,9.90
2019-03-09T11:01:07.578Z,10.00
2019-03-09T11:03:37.386Z,10.00
2019-03-09T11:06:09.159Z,10.00
2019-03-09T11:08:39.489Z,10.00
2019-03-09T11:11:09.275Z,10.10
2019-03-09T11:13:39.538Z,10.10
2019-03-09T11:16:09.778Z,10.20
2019-03-09T11:18:40.055Z,10.30
2019-03-09T11:21:10.056Z,10.20
2019-03-09T11:23:40.310Z,10.20
2019-03-09T11:26:10.578Z,10.20
2019-03-09T11:28:40.932Z,10.30
2019-03-09T11:31:11.124Z,10.30
2019-03-09T11:33:41.244Z,10.30
2019-03-09T11:36:11.471Z,10.30
2019-03-09T11:38:41.405Z,10.30
2019-03-09T11:41:18.715Z,10.30
2019-03-09T11:43:43.751Z,10.40
2019-03-09T11:46:14.029Z,10.50
2019-03-09T11:48:43.788Z,10.50
2019-03-09T11:51:15.073Z,10.60
2019-03-09T11:53:45.263Z,10.60
2019-03-09T11:56:15.389Z,10.60
2019-03-09T11:58:45.270Z,10.70
2019-03-09T12:01:15.914Z,10.70
2019-03-09T12:03:47.385Z,10.60
2019-03-09T12:06:17.306Z,10.70
2019-03-09T12:08:47.528Z,10.70
2019-03-09T12:11:17.748Z,10.60
2019-03-09T12:13:47.877Z,10.60
2019-03-09T12:16:18.163Z,10.50
2019-03-09T12:18:48.382Z,10.60
2019-03-09T12:21:18.202Z,10.60
2019-03-09T12:23:49.095Z,10.60
2019-03-09T12:26:19.211Z,10.60
2019-03-09T12:28:49.099Z,10.60
2019-03-09T12:31:19.118Z,10.70
2019-03-09T12:33:49.103Z,10.70
2019-03-09T12:36:19.171Z,10.70
2019-03-09T12:38:49.508Z,10.70
2019-03-09T12:41:19.310Z,10.70
2019-03-09T12:43:49.371Z,10.80
2019-03-09T12:46:19.806Z,10.80
2019-03-09T12:48:50.597Z,10.90
2019-03-09T12:51:20.390Z,10.90
2019-03-09T12:53:50.670Z,11.00
2019-03-09T12:56:20.775Z,11.10
2019-03-09T12:58:51.942Z,11.10
2019-03-09T13:01:25.287Z,11.10
2019-03-09T13:03:55.192Z,11.20
2019-03-09T13:06:25.668Z,11.20
2019-03-09T13:08:56.390Z,11.30
2019-03-09T13:11:26.342Z,11.30
2019-03-09T13:13:56.607Z,11.30
2019-03-09T13:16:26.910Z,11.40
2019-03-09T13:18:57.244Z,11.40
2019-03-09T13:21:27.371Z,11.40
2019-03-09T13:23:57.966Z,11.30
2019-03-09T13:26:28.291Z,11.40
2019-03-09T13:28:59.019Z,11.40
2019-03-09T13:31:28.858Z,11.50
2019-03-09T13:33:58.839Z,11.50
2019-03-09T13:36:28.704Z,11.40
2019-03-09T13:38:58.592Z,11.40
2019-03-09T13:41:29.133Z,11.40
2019-03-09T13:43:58.962Z,11.40
2019-03-09T13:46:28.750Z,11.40
2019-03-09T13:48:58.549Z,11.30
2019-03-09T13:51:28.454Z,11.30
2019-03-09T13:53:58.671Z,11.30
2019-03-09T13:56:28.581Z,11.30
2019-03-09T13:59:01.269Z,11.30
2019-03-09T14:01:31.855Z,11.20
2019-03-09T14:04:02.571Z,11.20
2019-03-09T14:06:33.148Z,11.20
2019-03-09T14:09:03.886Z,11.10
2019-03-09T14:11:34.355Z,11.10
2019-03-09T14:14:04.286Z,11.00
2019-03-09T14:16:34.879Z,10.90
2019-03-09T14:19:05.200Z,10.90
2019-03-09T14:21:36.167Z,10.90
2019-03-09T14:24:07.166Z,10.90
2019-03-09T14:26:38.490Z,10.80
2019-03-09T14:29:08.524Z,10.80
2019-03-09T14:31:38.858Z,10.80
2019-03-09T14:34:09.187Z,10.70
2019-03-09T14:36:40.051Z,10.70
2019-03-09T14:39:10.391Z,10.70
2019-03-09T14:41:40.476Z,10.70
2019-03-09T14:44:10.579Z,10.70
2019-03-09T14:46:40.613Z,10.60
2019-03-09T14:49:10.741Z,10.70
2019-03-09T14:51:41.282Z,10.70
2019-03-09T14:54:11.864Z,10.70
2019-03-09T14:56:44.066Z,10.60
2019-03-09T14:59:14.610Z,10.60
2019-03-09T15:01:44.890Z,10.70
2019-03-09T15:04:15.406Z,10.70
2019-03-09T15:06:45.511Z,10.70
2019-03-09T15:09:15.727Z,10.70
2019-03-09T15:11:46.708Z,10.70
2019-03-09T15:14:16.673Z,10.60
2019-03-09T15:16:47.053Z,10.60
2019-03-09T15:19:17.519Z,10.70
2019-03-09T15:21:47.469Z,10.70
2019-03-09T15:24:17.387Z,10.70
2019-03-09T15:26:48.035Z,10.70
2019-03-09T15:29:18.045Z,10.70
2019-03-09T15:31:47.976Z,10.80
2019-03-09T15:34:18.935Z,10.70
2019-03-09T15:36:49.316Z,10.70
2019-03-09T15:39:19.671Z,10.60
2019-03-09T15:41:51.727Z,10.60
2019-03-09T15:44:22.430Z,10.70
2019-03-09T15:46:53.845Z,10.70
2019-03-09T15:49:24.046Z,10.60
2019-03-09T15:51:54.458Z,10.60
2019-03-09T15:54:24.905Z,10.70
2019-03-09T15:56:55.316Z,10.60
2019-03-09T15:59:25.770Z,10.60
2019-03-09T16:01:56.044Z,10.60
2019-03-09T16:04:27.236Z,10.50
2019-03-09T16:06:58.039Z,10.40
2019-03-09T16:09:29.340Z,10.20
2019-03-09T16:12:03.409Z,10.00
2019-03-09T16:14:34.137Z,9.70
2019-03-09T16:17:10.474Z,9.40
2019-03-09T16:19:41.698Z,9.30
2019-03-09T16:22:12.525Z,9.30
2019-03-09T16:24:44.588Z,9.30
2019-03-09T16:27:15.369Z,9.30
2019-03-09T16:29:46.851Z,9.40
2019-03-09T16:32:18.305Z,9.60
2019-03-09T16:34:48.602Z,9.60
2019-03-09T16:37:19.738Z,9.70
2019-03-09T16:39:51.103Z,9.60
2019-03-09T16:42:22.389Z,9.70
2019-03-09T16:44:54.148Z,9.80
2019-03-09T16:47:33.293Z,9.70
2019-03-09T16:50:04.137Z,9.70
2019-03-09T16:52:34.744Z,9.70
2019-03-09T16:55:07.026Z,9.70
2019-03-09T16:57:40.508Z,9.80
2019-03-09T17:00:16.928Z,9.80
2019-03-09T17:02:49.451Z,9.80
2019-03-09T17:05:20.393Z,9.80
2019-03-09T17:07:51.883Z,9.80
2019-03-09T17:10:22.852Z,9.70
2019-03-09T17:12:53.727Z,9.80
2019-03-09T17:15:24.693Z,9.80
2019-03-09T17:17:56.948Z,9.80
2019-03-09T17:20:30.492Z,9.80
2019-03-09T17:23:06.214Z,9.90
2019-03-09T17:25:35.847Z,9.90
2019-03-09T17:28:08.582Z,9.90
2019-03-09T17:30:40.253Z,9.90
2019-03-09T17:33:10.387Z,9.90
2019-03-09T17:35:40.187Z,10.00
2019-03-09T17:38:10.261Z,10.00
2019-03-09T17:40:40.558Z,10.00
2019-03-09T17:43:11.679Z,10.00
2019-03-09T17:45:42.170Z,10.00
2019-03-09T17:48:12.353Z,10.00
2019-03-09T17:50:42.604Z,10.00
2019-03-09T17:53:14.092Z,10.00
2019-03-09T17:55:44.992Z,10.00
2019-03-09T17:58:15.582Z,10.00
2019-03-09T18:00:46.958Z,10.00
2019-03-09T18:03:19.946Z,10.00
2019-03-09T18:05:50.336Z,10.00
2019-03-09T18:08:20.198Z,10.00
2019-03-09T18:10:54.647Z,10.00
2019-03-09T18:13:25.517Z,10.00
2019-03-09T18:15:56.222Z,10.00
2019-03-09T18:18:30.767Z,9.90
2019-03-09T18:21:02.059Z,9.90
2019-03-09T18:23:33.489Z,9.90
2019-03-09T18:26:07.186Z,9.90
2019-03-09T18:28:38.382Z,9.90
2019-03-09T18:31:13.716Z,9.80
2019-03-09T18:33:47.513Z,9.80
2019-03-09T18:36:18.183Z,9.90
2019-03-09T18:38:51.960Z,9.80
2019-03-09T18:41:25.760Z,9.80
2019-03-09T18:43:56.930Z,9.80
2019-03-09T18:46:30.222Z,9.80
2019-03-09T18:49:00.983Z,9.80
2019-03-09T18:51:32.299Z,9.80
2019-03-09T18:54:03.950Z,9.80
2019-03-09T18:56:35.951Z,9.80
2019-03-09T18:59:07.642Z,9.80
2019-03-09T19:01:38.546Z,9.80
2019-03-09T19:04:12.908Z,9.80
2019-03-09T19:06:44.488Z,9.80
2019-03-09T19:09:15.286Z,9.80
2019-03-09T19:11:47.001Z,9.90
2019-03-09T19:14:18.186Z,9.90
2019-03-09T19:16:49.000Z,9.90
2019-03-09T19:19:20.804Z,9.90
2019-03-09T19:21:52.850Z,9.90
2019-03-09T19:24:23.733Z,9.90
2019-03-09T19:26:54.668Z,9.90
2019-03-09T19:29:25.665Z,10.00
2019-03-09T19:31:56.891Z,10.00
2019-03-09T19:34:29.850Z,10.00
2019-03-09T19:37:03.041Z,10.10
2019-03-09T19:39:33.954Z,10.10
2019-03-09T19:42:07.939Z,10.00
2019-03-09T19:44:40.956Z,10.00
2019-03-09T19:47:12.622Z,10.00
2019-03-09T19:49:47.994Z,10.00
2019-03-09T19:52:20.311Z,10.00
2019-03-09T19:54:51.807Z,10.00
2019-03-09T19:57:25.546Z,10.00
2019-03-09T19:59:56.583Z,10.00
2019-03-09T20:02:27.653Z,10.00
2019-03-09T20:04:58.870Z,10.00
2019-03-09T20:07:30.742Z,10.00
2019-03-09T20:10:02.150Z,10.00
2019-03-09T20:12:32.800Z,10.00
2019-03-09T20:15:05.126Z,10.10
2019-03-09T20:17:36.098Z,10.00
2019-03-09T20:20:08.632Z,10.20
2019-03-09T20:22:39.678Z,10.20
2019-03-09T20:25:11.364Z,10.20
2019-03-09T20:27:42.096Z,10.30
2019-03-09T20:30:17.231Z,10.40
2019-03-09T20:32:47.993Z,10.40
2019-03-09T20:35:19.719Z,10.40
2019-03-09T20:37:51.503Z,10.40
2019-03-09T20:40:23.508Z,10.30
2019-03-09T20:42:55.370Z,10.40
2019-03-09T20:45:26.712Z,10.40
2019-03-09T20:47:59.512Z,10.50
2019-03-09T20:50:30.767Z,10.50
2019-03-09T20:53:04.847Z,10.50
2019-03-09T20:55:36.272Z,10.50
2019-03-09T20:58:13.605Z,10.50
2019-03-09T21:00:46.728Z,10.40
2019-03-09T21:03:18.120Z,10.50
2019-03-09T21:05:49.095Z,10.50
2019-03-09T21:08:20.861Z,10.50
2019-03-09T21:10:52.583Z,10.60
2019-03-09T21:13:24.295Z,10.50
2019-03-09T21:15:57.474Z,10.60
2019-03-09T21:18:29.703Z,10.70
2019-03-09T21:21:00.829Z,10.70
2019-03-09T21:23:31.679Z,10.70
2019-03-09T21:26:03.213Z,10.80
2019-03-09T21:28:34.672Z,10.80
2019-03-09T21:31:05.676Z,10.90
2019-03-09T21:33:36.665Z,10.90
2019-03-09T21:36:09.022Z,10.80
2019-03-09T21:38:39.606Z,10.70
2019-03-09T21:41:09.405Z,10.70
2019-03-09T21:43:39.290Z,10.70
2019-03-09T21:46:09.251Z,10.70
2019-03-09T21:48:39.081Z,10.70
2019-03-09T21:51:09.095Z,10.70
2019-03-09T21:53:38.972Z,10.70
2019-03-09T21:56:09.742Z,10.70
2019-03-09T21:58:39.551Z,10.70
2019-03-09T22:01:29.088Z,10.70
2019-03-09T22:04:02.195Z,10.70
2019-03-09T22:06:33.855Z,10.70
2019-03-09T22:09:05.926Z,10.70
2019-03-09T22:11:36.911Z,10.70
2019-03-09T22:14:07.936Z,10.60
2019-03-09T22:16:39.435Z,10.60
2019-03-09T22:19:11.002Z,10.70
2019-03-09T22:21:42.001Z,10.60
2019-03-09T22:24:14.559Z,10.60
2019-03-09T22:26:45.062Z,10.70
2019-03-09T22:29:16.887Z,10.60
2019-03-09T22:31:47.908Z,10.60
2019-03-09T22:34:18.969Z,10.60
2019-03-09T22:36:50.947Z,10.70
2019-03-09T22:39:22.130Z,10.70
2019-03-09T22:41:54.128Z,10.60
2019-03-09T22:44:24.684Z,10.70
2019-03-09T22:46:59.266Z,10.70
2019-03-09T22:49:32.658Z,10.60
2019-03-09T22:52:03.701Z,10.60
2019-03-09T22:54:34.435Z,10.60
2019-03-09T22:57:06.563Z,10.60
2019-03-09T22:59:36.863Z,10.60
2019-03-09T23:02:07.357Z,10.60
2019-03-09T23:04:37.164Z,10.50
2019-03-09T23:07:07.075Z,10.50
2019-03-09T23:09:37.370Z,10.50
2019-03-09T23:12:07.578Z,10.60
2019-03-09T23:14:37.489Z,10.50
2019-03-09T23:17:07.321Z,10.50
2019-03-09T23:19:37.608Z,10.40
2019-03-09T23:22:08.513Z,10.40
2019-03-09T23:24:38.428Z,10.50
2019-03-09T23:27:08.259Z,10.50
2019-03-09T23:29:38.169Z,10.50
2019-03-09T23:32:08.046Z,10.50
2019-03-09T23:34:38.124Z,10.50
2019-03-09T23:37:07.996Z,10.50
2019-03-09T23:39:37.794Z,10.50
2019-03-09T23:42:07.840Z,10.50
2019-03-09T23:44:37.900Z,10.50
2019-03-09T23:47:07.768Z,10.50
2019-03-09T23:49:38.685Z,10.50
2019-03-09T23:52:09.573Z,10.40
2019-03-09T23:54:39.823Z,10.40
2019-03-09T23:57:10.565Z,10.40
2019-03-09T23:59:40.345Z,10.50
